DLH594 DNAA-DNPO
Flight info
| Callsign | DLH594 |
|---|---|
| Flight time | N/A |
| Altitude | 32000 |
| Route | IKVAD1Q IKVAD DCT IVBUV UV456 BORMO BORMO1R |
| Aircraft | A343/H-SDE2E3FGHIJ3J5M1P2RWXYZ/LB1D1 |
Departure
| Time | N/A |
|---|---|
| Airport | Nnamdi Azikiwe International Airport (DNAA) |
Arrival
| Time | 2026-04-13 14:22 |
|---|---|
| Airport | Port Harcourt International Airport (DNPO) |
| Time | Latitude | Longitude | Altitude | Speed | Heading |
|---|---|---|---|---|---|
| 2026-04-13 14:15 | 5.34942 | 7.07680 | 5108 ft | 271 kts | 178° |
| 2026-04-13 14:15 | 5.33078 | 7.07686 | 4376 ft | 264 kts | 178° |
| 2026-04-13 14:15 | 5.31280 | 7.07700 | 3821 ft | 251 kts | 179° |
| 2026-04-13 14:16 | 5.29591 | 7.07716 | 3446 ft | 235 kts | 179° |
| 2026-04-13 14:16 | 5.27933 | 7.07732 | 3185 ft | 242 kts | 180° |
| 2026-04-13 14:16 | 5.26270 | 7.07734 | 3050 ft | 235 kts | 182° |
| 2026-04-13 14:16 | 5.24691 | 7.07397 | 2934 ft | 235 kts | 201° |
| 2026-04-13 14:17 | 5.23207 | 7.06678 | 2822 ft | 238 kts | 208° |
| 2026-04-13 14:17 | 5.21761 | 7.05870 | 2756 ft | 237 kts | 207° |
| 2026-04-13 14:17 | 5.20326 | 7.05101 | 2632 ft | 232 kts | 207° |
| 2026-04-13 14:17 | 5.18896 | 7.04341 | 2478 ft | 230 kts | 206° |
| 2026-04-13 14:18 | 5.17506 | 7.03598 | 2415 ft | 222 kts | 207° |
| 2026-04-13 14:18 | 5.16188 | 7.02883 | 2331 ft | 215 kts | 207° |
| 2026-04-13 14:18 | 5.14906 | 7.02181 | 2324 ft | 205 kts | 207° |
| 2026-04-13 14:18 | 5.13687 | 7.01513 | 2314 ft | 194 kts | 207° |
| 2026-04-13 14:19 | 5.12550 | 7.00890 | 2284 ft | 179 kts | 208° |
| 2026-04-13 14:19 | 5.11474 | 7.00301 | 1991 ft | 175 kts | 207° |
| 2026-04-13 14:19 | 5.10420 | 6.99735 | 1730 ft | 168 kts | 206° |
| 2026-04-13 14:19 | 5.09430 | 6.99203 | 1516 ft | 155 kts | 207° |
| 2026-04-13 14:20 | 5.08529 | 6.98717 | 1336 ft | 140 kts | 207° |
| 2026-04-13 14:20 | 5.07722 | 6.98280 | 1181 ft | 126 kts | 206° |
| 2026-04-13 14:20 | 5.06954 | 6.97877 | 1047 ft | 122 kts | 206° |
| 2026-04-13 14:20 | 5.06203 | 6.97476 | 841 ft | 122 kts | 206° |
| 2026-04-13 14:21 | 5.05453 | 6.97059 | 730 ft | 126 kts | 206° |
| 2026-04-13 14:21 | 5.04674 | 6.96633 | 620 ft | 130 kts | 205° |
| 2026-04-13 14:21 | 5.03854 | 6.96204 | 412 ft | 136 kts | 207° |
| 2026-04-13 14:21 | 5.03006 | 6.95745 | 203 ft | 139 kts | 208° |
| 2026-04-13 14:22 | 5.02191 | 6.95301 | 88 ft | 123 kts | 206° |
| 2026-04-13 14:22 | 5.01593 | 6.94983 | 87 ft | 71 kts | 208° |
| 2026-04-13 14:22 | 5.01249 | 6.94796 | 82 ft | 43 kts | 208° |
| 2026-04-13 14:22 | 5.01017 | 6.94710 | 84 ft | 33 kts | 186° |
| 2026-04-13 14:23 | 5.00871 | 6.94715 | 83 ft | 0 kts | 161° |
| 2026-04-13 14:23 | 5.00841 | 6.94733 | 84 ft | 9 kts | 143° |
| 2026-04-13 14:23 | 5.00828 | 6.94779 | 83 ft | 9 kts | 76° |
| 2026-04-13 14:23 | 5.00901 | 6.94838 | 84 ft | 16 kts | 29° |
| 2026-04-13 14:24 | 5.01028 | 6.94907 | 81 ft | 24 kts | 28° |
| 2026-04-13 14:24 | 5.01181 | 6.94990 | 82 ft | 25 kts | 28° |
| 2026-04-13 14:24 | 5.01337 | 6.95074 | 84 ft | 26 kts | 27° |
| 2026-04-13 14:24 | 5.01494 | 6.95156 | 86 ft | 15 kts | 28° |
| 2026-04-13 14:25 | 5.01513 | 6.95188 | 86 ft | 5 kts | 81° |
| 2026-04-13 14:25 | 5.01502 | 6.95228 | 86 ft | 7 kts | 113° |
| 2026-04-13 14:25 | 5.01477 | 6.95275 | 84 ft | 0 kts | 118° |
| 2026-04-13 14:25 | 5.01473 | 6.95282 | 85 ft | 0 kts | 118° |